createdAt,value
2017-09-10T00:01:02.175Z,95.89
2017-09-10T00:03:30.028Z,95.72
2017-09-10T00:05:57.931Z,95.83
2017-09-10T00:08:25.762Z,95.98
2017-09-10T00:10:53.656Z,96.20
2017-09-10T00:13:21.491Z,96.38
2017-09-10T00:15:49.289Z,96.50
2017-09-10T00:18:17.141Z,96.66
2017-09-10T00:20:45.036Z,96.75
2017-09-10T00:23:12.874Z,96.81
2017-09-10T00:25:40.778Z,96.82
2017-09-10T00:28:08.614Z,96.71
2017-09-10T00:30:36.558Z,96.56
2017-09-10T00:33:04.402Z,96.39
2017-09-10T00:35:32.301Z,96.28
2017-09-10T00:38:00.163Z,96.16
2017-09-10T00:40:28.079Z,96.06
2017-09-10T00:42:55.933Z,95.99
2017-09-10T00:45:23.834Z,95.93
2017-09-10T00:47:51.706Z,95.90
2017-09-10T00:50:19.622Z,95.80
2017-09-10T00:52:47.502Z,95.64
2017-09-10T00:55:15.400Z,95.88
2017-09-10T00:57:43.263Z,96.07
2017-09-10T01:00:11.254Z,96.27
2017-09-10T01:02:39.852Z,96.42
2017-09-10T01:05:07.766Z,96.49
2017-09-10T01:07:35.623Z,96.50
2017-09-10T01:10:03.527Z,96.53
2017-09-10T01:12:31.448Z,96.59
2017-09-10T01:14:59.366Z,96.44
2017-09-10T01:17:27.245Z,96.16
2017-09-10T01:19:55.183Z,95.93
2017-09-10T01:22:23.040Z,95.89
2017-09-10T01:24:50.982Z,95.80
2017-09-10T01:27:18.839Z,95.58
2017-09-10T01:29:46.746Z,95.43
2017-09-10T01:32:14.654Z,95.58
2017-09-10T01:34:42.523Z,95.80
2017-09-10T01:37:10.410Z,96.03
2017-09-10T01:39:38.270Z,96.18
2017-09-10T01:42:06.185Z,96.01
2017-09-10T01:44:34.022Z,95.63
2017-09-10T01:47:01.918Z,95.40
2017-09-10T01:49:29.658Z,95.32
2017-09-10T01:51:57.550Z,95.65
2017-09-10T01:54:25.406Z,95.86
2017-09-10T01:56:53.291Z,96.15
2017-09-10T01:59:21.164Z,96.35
2017-09-10T02:01:49.065Z,96.54
2017-09-10T02:04:16.895Z,96.62
2017-09-10T02:06:44.790Z,96.37
2017-09-10T02:09:12.640Z,96.17
2017-09-10T02:11:40.538Z,96.16
2017-09-10T02:14:08.398Z,96.04
2017-09-10T02:16:36.307Z,96.00
2017-09-10T02:19:04.179Z,95.91
2017-09-10T02:21:32.076Z,95.82
2017-09-10T02:23:59.810Z,95.96
2017-09-10T02:26:27.707Z,96.25
2017-09-10T02:28:55.553Z,96.46
2017-09-10T02:31:23.484Z,96.59
2017-09-10T02:33:51.340Z,96.74
2017-09-10T02:36:19.219Z,96.72
2017-09-10T02:38:47.058Z,96.59
2017-09-10T02:41:14.958Z,96.50
2017-09-10T02:43:42.794Z,96.55
2017-09-10T02:46:10.630Z,96.65
2017-09-10T02:48:38.534Z,96.67
2017-09-10T02:51:06.391Z,96.81
2017-09-10T02:53:34.290Z,96.92
2017-09-10T02:56:02.148Z,97.01
2017-09-10T02:58:30.050Z,97.09
2017-09-10T03:00:57.901Z,97.15
2017-09-10T03:03:25.795Z,97.14
2017-09-10T03:05:53.645Z,97.11
2017-09-10T03:08:21.533Z,97.09
2017-09-10T03:10:49.373Z,97.04
2017-09-10T03:13:17.250Z,96.97
2017-09-10T03:15:45.093Z,97.01
2017-09-10T03:18:12.983Z,97.08
2017-09-10T03:20:40.829Z,97.09
2017-09-10T03:23:08.718Z,97.07
2017-09-10T03:25:36.571Z,97.04
2017-09-10T03:28:04.466Z,96.93
2017-09-10T03:30:32.359Z,96.86
2017-09-10T03:33:00.262Z,96.81
2017-09-10T03:35:28.127Z,96.78
2017-09-10T03:37:56.025Z,96.76
2017-09-10T03:40:23.896Z,96.75
2017-09-10T03:42:51.788Z,96.74
2017-09-10T03:45:19.698Z,96.68
2017-09-10T03:47:47.591Z,96.61
2017-09-10T03:50:15.506Z,96.54
2017-09-10T03:52:43.398Z,96.46
2017-09-10T03:55:11.240Z,96.48
2017-09-10T03:57:39.133Z,96.49
2017-09-10T04:00:06.973Z,96.53
2017-09-10T04:02:34.883Z,96.61
2017-09-10T04:05:02.715Z,96.60
2017-09-10T04:07:30.562Z,96.55
2017-09-10T04:09:58.483Z,96.51
2017-09-10T04:12:26.327Z,96.47
2017-09-10T04:14:54.227Z,96.45
2017-09-10T04:17:22.085Z,96.50
2017-09-10T04:19:49.900Z,96.57
2017-09-10T04:22:17.750Z,96.35
2017-09-10T04:24:45.637Z,96.37
2017-09-10T04:27:13.491Z,96.52
2017-09-10T04:29:41.385Z,96.63
2017-09-10T04:32:09.318Z,96.85
2017-09-10T04:34:37.229Z,96.99
2017-09-10T04:37:05.075Z,97.05
2017-09-10T04:39:32.977Z,96.93
2017-09-10T04:42:00.851Z,96.73
2017-09-10T04:44:28.756Z,96.63
2017-09-10T04:46:56.681Z,96.47
2017-09-10T04:49:24.583Z,96.37
2017-09-10T04:51:52.442Z,96.31
2017-09-10T04:54:20.350Z,96.37
2017-09-10T04:56:48.226Z,96.39
2017-09-10T04:59:16.138Z,96.32
2017-09-10T05:01:43.982Z,96.57
2017-09-10T05:04:11.899Z,96.79
2017-09-10T05:06:39.761Z,96.96
2017-09-10T05:09:07.649Z,97.06
2017-09-10T05:11:35.530Z,97.16
2017-09-10T05:14:03.475Z,97.26
2017-09-10T05:16:31.346Z,97.26
2017-09-10T05:18:59.255Z,97.23
2017-09-10T05:21:27.134Z,97.08
2017-09-10T05:23:54.910Z,96.78
2017-09-10T05:26:22.734Z,96.49
2017-09-10T05:28:50.613Z,96.43
2017-09-10T05:31:18.551Z,96.29
2017-09-10T05:33:46.497Z,96.08
2017-09-10T05:36:14.352Z,95.69
2017-09-10T05:38:42.292Z,95.34
2017-09-10T05:41:10.143Z,95.07
2017-09-10T05:43:38.115Z,95.01
2017-09-10T05:46:06.023Z,94.92
2017-09-10T05:48:33.978Z,94.47
2017-09-10T05:51:01.846Z,94.03
2017-09-10T05:53:29.693Z,93.62
2017-09-10T05:55:57.610Z,93.49
2017-09-10T05:58:25.466Z,93.32
2017-09-10T06:00:53.373Z,92.88
2017-09-10T06:03:21.232Z,92.47
2017-09-10T06:05:49.154Z,92.36
2017-09-10T06:08:17.075Z,92.53
2017-09-10T06:10:44.983Z,92.83
2017-09-10T06:13:12.842Z,92.94
2017-09-10T06:15:40.773Z,93.02
2017-09-10T06:18:08.690Z,92.71
2017-09-10T06:20:36.606Z,92.61
2017-09-10T06:23:04.476Z,92.52
2017-09-10T06:25:32.393Z,92.20
2017-09-10T06:28:00.281Z,92.05
2017-09-10T06:30:28.233Z,92.10
2017-09-10T06:32:56.110Z,91.84
2017-09-10T06:35:24.027Z,91.70
2017-09-10T06:37:51.899Z,91.58
2017-09-10T06:40:19.792Z,91.39
2017-09-10T06:42:47.645Z,91.17
2017-09-10T06:45:15.601Z,91.27
2017-09-10T06:47:43.483Z,91.40
2017-09-10T06:50:11.394Z,91.29
2017-09-10T06:52:39.274Z,91.19
2017-09-10T06:55:07.180Z,90.74
2017-09-10T06:57:35.064Z,90.55
2017-09-10T07:00:03.012Z,89.92
2017-09-10T07:02:30.904Z,89.86
2017-09-10T07:04:58.816Z,89.72
2017-09-10T07:07:26.733Z,90.26
2017-09-10T07:09:54.663Z,90.06
2017-09-10T07:12:22.550Z,90.58
2017-09-10T07:14:50.489Z,90.36
2017-09-10T07:17:18.360Z,90.18
2017-09-10T07:19:46.335Z,89.80
2017-09-10T07:22:14.302Z,89.17
2017-09-10T07:24:42.257Z,88.35
2017-09-10T07:27:10.124Z,87.67
2017-09-10T07:29:38.022Z,88.01
2017-09-10T07:32:05.940Z,87.26
2017-09-10T07:34:33.844Z,87.14
2017-09-10T07:37:01.705Z,86.92
2017-09-10T07:39:29.566Z,86.84
2017-09-10T07:41:57.523Z,87.98
2017-09-10T07:44:25.493Z,87.17
2017-09-10T07:46:53.542Z,86.59
2017-09-10T07:49:21.455Z,85.14
2017-09-10T07:51:49.375Z,85.24
2017-09-10T07:54:17.254Z,84.47
2017-09-10T07:56:45.151Z,84.63
2017-09-10T07:59:13.026Z,84.17
2017-09-10T08:01:40.946Z,83.63
2017-09-10T08:04:08.793Z,83.25
2017-09-10T08:06:36.722Z,82.60
2017-09-10T08:09:04.692Z,83.43
2017-09-10T08:11:32.599Z,83.47
2017-09-10T08:14:00.454Z,83.50
2017-09-10T08:16:28.426Z,83.00
2017-09-10T08:18:56.368Z,82.42
2017-09-10T08:21:24.285Z,80.88
2017-09-10T08:23:52.242Z,81.74
2017-09-10T08:26:20.150Z,80.67
2017-09-10T08:28:48.041Z,80.42
2017-09-10T08:31:16.008Z,81.02
2017-09-10T08:33:43.900Z,81.33
2017-09-10T08:36:11.814Z,81.99
2017-09-10T08:38:39.754Z,79.91
2017-09-10T08:41:07.702Z,80.26
2017-09-10T08:43:35.556Z,79.95
2017-09-10T08:46:03.538Z,80.08
2017-09-10T08:48:31.417Z,80.00
2017-09-10T08:50:59.341Z,78.62
2017-09-10T08:53:27.250Z,79.37
2017-09-10T08:55:55.995Z,79.41
2017-09-10T08:58:23.829Z,77.91
2017-09-10T09:00:51.732Z,78.25
2017-09-10T09:03:19.582Z,78.62
2017-09-10T09:05:47.519Z,77.80
2017-09-10T09:08:15.407Z,77.70
2017-09-10T09:10:43.305Z,76.37
2017-09-10T09:13:11.225Z,76.83
2017-09-10T09:15:39.226Z,76.04
2017-09-10T09:18:07.089Z,76.73
2017-09-10T09:20:35.034Z,75.30
2017-09-10T09:23:02.915Z,75.70
2017-09-10T09:25:30.799Z,74.61
2017-09-10T09:27:58.744Z,77.07
2017-09-10T09:30:26.624Z,75.57
2017-09-10T09:32:54.594Z,75.06
2017-09-10T09:35:22.474Z,76.60
2017-09-10T09:37:50.402Z,75.28
2017-09-10T09:40:18.257Z,76.06
2017-09-10T09:42:46.187Z,76.17
2017-09-10T09:45:14.052Z,74.41
2017-09-10T09:47:42.011Z,73.59
2017-09-10T09:50:09.977Z,71.58
2017-09-10T09:52:37.951Z,72.07
2017-09-10T09:55:05.818Z,73.42
2017-09-10T09:57:33.753Z,71.81
2017-09-10T10:00:01.618Z,71.76
2017-09-10T10:02:29.568Z,71.05
2017-09-10T10:04:57.415Z,71.19
2017-09-10T10:07:25.335Z,71.58
2017-09-10T10:09:53.199Z,72.78
2017-09-10T10:12:21.151Z,71.95
2017-09-10T10:14:49.072Z,72.33
2017-09-10T10:17:17.002Z,69.81
2017-09-10T10:19:44.874Z,67.94
2017-09-10T10:22:12.795Z,67.72
2017-09-10T10:24:40.680Z,67.08
2017-09-10T10:27:08.591Z,67.51
2017-09-10T10:29:36.465Z,68.00
2017-09-10T10:32:04.407Z,67.70
2017-09-10T10:34:32.270Z,65.97
2017-09-10T10:37:00.170Z,66.81
2017-09-10T10:39:28.059Z,65.28
2017-09-10T10:41:55.979Z,64.04
2017-09-10T10:44:23.902Z,63.88
2017-09-10T10:46:51.838Z,64.31
2017-09-10T10:49:19.619Z,66.51
2017-09-10T10:51:47.528Z,67.62
2017-09-10T10:54:15.411Z,66.25
2017-09-10T10:56:43.326Z,66.69
2017-09-10T10:59:11.183Z,64.48
2017-09-10T11:01:39.090Z,65.69
2017-09-10T11:04:06.972Z,64.89
2017-09-10T11:06:34.953Z,65.47
2017-09-10T11:09:02.841Z,65.56
2017-09-10T11:11:30.686Z,64.61
2017-09-10T11:13:58.607Z,65.72
2017-09-10T11:16:26.491Z,64.27
2017-09-10T11:18:54.439Z,64.64
2017-09-10T11:21:22.335Z,65.57
2017-09-10T11:23:50.283Z,65.81
2017-09-10T11:26:18.144Z,65.43
2017-09-10T11:28:46.071Z,66.40
2017-09-10T11:31:14.006Z,66.46
2017-09-10T11:33:41.917Z,67.22
2017-09-10T11:36:10.076Z,68.27
2017-09-10T11:38:37.985Z,67.77
2017-09-10T11:41:05.862Z,67.24
2017-09-10T11:43:33.820Z,67.03
2017-09-10T11:46:01.697Z,66.63
2017-09-10T11:48:29.654Z,64.87
2017-09-10T11:50:57.568Z,63.94
2017-09-10T11:53:25.525Z,62.41
2017-09-10T11:55:53.380Z,62.54
2017-09-10T11:58:21.272Z,62.88
2017-09-10T12:00:49.113Z,61.84
2017-09-10T12:03:17.088Z,64.19
2017-09-10T12:05:45.008Z,62.79
2017-09-10T12:08:12.914Z,59.89
2017-09-10T12:10:40.808Z,61.46
2017-09-10T12:13:08.735Z,60.03
2017-09-10T12:15:36.597Z,58.94
2017-09-10T12:18:04.440Z,62.72
2017-09-10T12:20:32.311Z,62.57
2017-09-10T12:23:00.232Z,60.89
2017-09-10T12:25:28.101Z,60.08
2017-09-10T12:27:55.997Z,60.10
2017-09-10T12:30:23.912Z,58.97
2017-09-10T12:32:51.891Z,59.60
2017-09-10T12:35:19.767Z,61.73
2017-09-10T12:37:47.579Z,60.65
2017-09-10T12:40:15.430Z,59.20
2017-09-10T12:42:43.331Z,57.75
2017-09-10T12:45:11.217Z,58.65
2017-09-10T12:47:39.148Z,57.87
2017-09-10T12:50:07.071Z,60.38
2017-09-10T12:52:35.013Z,60.86
2017-09-10T12:55:02.890Z,60.93
2017-09-10T12:57:30.775Z,61.47
2017-09-10T12:59:58.773Z,61.71
2017-09-10T13:02:26.651Z,61.82
2017-09-10T13:04:54.591Z,62.44
2017-09-10T13:07:22.443Z,62.90
2017-09-10T13:09:50.373Z,63.10
2017-09-10T13:12:18.222Z,62.31
2017-09-10T13:14:46.193Z,61.99
2017-09-10T13:17:14.048Z,60.99
2017-09-10T13:19:41.929Z,62.58
2017-09-10T13:22:09.771Z,61.81
2017-09-10T13:24:37.700Z,62.51
2017-09-10T13:27:05.565Z,62.16
2017-09-10T13:29:33.525Z,63.05
2017-09-10T13:32:01.426Z,62.55
2017-09-10T13:34:29.366Z,61.14
2017-09-10T13:36:57.212Z,62.04
2017-09-10T13:39:25.129Z,60.14
2017-09-10T13:41:53.077Z,61.40
2017-09-10T13:44:21.082Z,59.58
2017-09-10T13:46:48.956Z,58.29
2017-09-10T13:49:16.884Z,58.17
2017-09-10T13:51:44.798Z,57.75
2017-09-10T13:54:12.797Z,57.21
2017-09-10T13:56:40.745Z,58.54
2017-09-10T13:59:08.655Z,60.30
2017-09-10T14:01:36.515Z,60.90
2017-09-10T14:04:04.401Z,59.78
2017-09-10T14:06:32.340Z,59.21
2017-09-10T14:09:00.298Z,60.06
2017-09-10T14:11:28.242Z,60.87
2017-09-10T14:13:56.104Z,59.57
2017-09-10T14:16:24.034Z,59.09
2017-09-10T14:18:51.825Z,61.20
2017-09-10T14:21:19.822Z,59.63
2017-09-10T14:23:47.682Z,61.39
2017-09-10T14:26:15.591Z,61.83
2017-09-10T14:28:43.479Z,60.97
2017-09-10T14:31:11.430Z,62.48
2017-09-10T14:33:39.358Z,62.18
2017-09-10T14:36:07.287Z,59.81
2017-09-10T14:38:35.175Z,60.28
2017-09-10T14:41:03.114Z,60.82
2017-09-10T14:43:31.035Z,61.37
2017-09-10T14:45:58.950Z,61.72
2017-09-10T14:48:26.855Z,61.15
2017-09-10T14:50:54.788Z,60.00
2017-09-10T14:53:22.666Z,60.29
2017-09-10T14:55:50.610Z,59.01
2017-09-10T14:58:18.428Z,58.71
2017-09-10T15:00:46.388Z,60.04
2017-09-10T15:03:14.296Z,60.81
2017-09-10T15:05:42.227Z,61.64
2017-09-10T15:08:10.066Z,61.68
2017-09-10T15:10:37.986Z,61.52
2017-09-10T15:13:05.867Z,61.57
2017-09-10T15:15:33.822Z,62.32
2017-09-10T15:18:01.684Z,62.95
2017-09-10T15:20:29.603Z,62.63
2017-09-10T15:22:57.470Z,63.12
2017-09-10T15:25:25.445Z,63.42
2017-09-10T15:27:53.287Z,62.93
2017-09-10T15:30:21.253Z,63.46
2017-09-10T15:32:49.214Z,64.76
2017-09-10T15:35:17.156Z,63.63
2017-09-10T15:37:45.020Z,64.07
2017-09-10T15:40:12.924Z,65.83
2017-09-10T15:42:40.794Z,65.53
2017-09-10T15:45:08.750Z,65.24
2017-09-10T15:47:36.679Z,66.68
2017-09-10T15:50:04.562Z,65.60
2017-09-10T15:52:32.463Z,64.24
2017-09-10T15:55:00.416Z,64.34
2017-09-10T15:57:28.394Z,65.09
2017-09-10T15:59:56.314Z,65.80
2017-09-10T16:02:24.263Z,64.99
2017-09-10T16:04:52.101Z,65.24
2017-09-10T16:07:20.021Z,64.76
2017-09-10T16:09:47.886Z,65.83
2017-09-10T16:12:16.007Z,65.62
2017-09-10T16:14:43.866Z,65.65
2017-09-10T16:17:11.796Z,67.46
2017-09-10T16:19:39.632Z,65.79
2017-09-10T16:22:07.549Z,66.39
2017-09-10T16:24:35.506Z,66.69
2017-09-10T16:27:03.469Z,66.95
2017-09-10T16:29:31.352Z,67.58
2017-09-10T16:31:59.283Z,67.44
2017-09-10T16:34:27.198Z,68.26
2017-09-10T16:36:55.145Z,68.94
2017-09-10T16:39:23.018Z,69.46
2017-09-10T16:41:50.974Z,71.17
2017-09-10T16:44:18.915Z,71.57
2017-09-10T16:46:46.827Z,71.72
2017-09-10T16:49:14.736Z,71.63
2017-09-10T16:51:42.668Z,71.48
2017-09-10T16:54:10.506Z,72.13
2017-09-10T16:56:38.482Z,72.40
2017-09-10T16:59:06.410Z,72.75
2017-09-10T17:01:34.368Z,72.86
2017-09-10T17:04:03.201Z,73.88
2017-09-10T17:06:31.149Z,74.18
2017-09-10T17:08:59.045Z,74.78
2017-09-10T17:11:26.951Z,75.32
2017-09-10T17:13:54.818Z,76.58
2017-09-10T17:16:22.720Z,77.32
2017-09-10T17:18:50.588Z,77.97
2017-09-10T17:21:18.503Z,78.73
2017-09-10T17:23:46.377Z,79.19
2017-09-10T17:26:14.204Z,79.72
2017-09-10T17:28:42.049Z,80.21
2017-09-10T17:31:09.987Z,80.43
2017-09-10T17:33:37.853Z,80.77
2017-09-10T17:36:05.762Z,81.18
2017-09-10T17:38:33.619Z,81.37
2017-09-10T17:41:01.455Z,81.60
2017-09-10T17:43:29.367Z,81.64
2017-09-10T17:45:57.222Z,81.74
2017-09-10T17:48:25.203Z,81.73
2017-09-10T17:50:53.129Z,81.82
2017-09-10T17:53:21.087Z,82.14
2017-09-10T17:55:49.019Z,82.27
2017-09-10T17:58:16.922Z,82.27
2017-09-10T18:00:44.832Z,82.23
2017-09-10T18:03:12.754Z,82.05
2017-09-10T18:05:40.624Z,81.88
2017-09-10T18:08:08.533Z,81.78
2017-09-10T18:10:36.419Z,81.88
2017-09-10T18:13:04.379Z,81.88
2017-09-10T18:15:32.263Z,82.01
2017-09-10T18:18:00.196Z,82.30
2017-09-10T18:20:28.126Z,82.25
2017-09-10T18:22:56.033Z,82.56
2017-09-10T18:25:23.892Z,82.92
2017-09-10T18:27:51.837Z,83.33
2017-09-10T18:30:19.744Z,83.72
2017-09-10T18:32:47.699Z,84.04
2017-09-10T18:35:15.548Z,84.28
2017-09-10T18:37:43.474Z,84.32
2017-09-10T18:40:11.331Z,84.29
2017-09-10T18:42:39.281Z,84.30
2017-09-10T18:45:07.152Z,84.49
2017-09-10T18:47:35.126Z,84.51
2017-09-10T18:50:03.049Z,84.64
2017-09-10T18:52:31.000Z,85.01
2017-09-10T18:54:58.903Z,85.25
2017-09-10T18:57:26.920Z,85.31
2017-09-10T18:59:54.731Z,85.43
2017-09-10T19:02:22.674Z,85.51
2017-09-10T19:04:50.594Z,85.62
2017-09-10T19:07:18.506Z,85.80
2017-09-10T19:09:46.271Z,85.94
2017-09-10T19:12:14.080Z,86.13
2017-09-10T19:14:41.931Z,86.28
2017-09-10T19:17:09.821Z,86.38
2017-09-10T19:19:37.741Z,86.35
2017-09-10T19:22:05.607Z,86.39
2017-09-10T19:24:33.552Z,86.30
2017-09-10T19:27:01.440Z,86.07
2017-09-10T19:29:29.363Z,85.95
2017-09-10T19:31:57.286Z,85.82
2017-09-10T19:34:25.233Z,85.67
2017-09-10T19:36:53.089Z,85.65
2017-09-10T19:39:21.036Z,85.44
2017-09-10T19:41:48.882Z,85.37
2017-09-10T19:44:16.807Z,85.31
2017-09-10T19:46:44.722Z,85.09
2017-09-10T19:49:12.700Z,85.07
2017-09-10T19:51:40.577Z,84.94
2017-09-10T19:54:08.491Z,84.84
2017-09-10T19:56:36.356Z,84.74
2017-09-10T19:59:04.258Z,84.89
2017-09-10T20:01:32.129Z,85.06
2017-09-10T20:04:00.060Z,85.18
2017-09-10T20:06:27.923Z,85.17
2017-09-10T20:08:55.851Z,85.34
2017-09-10T20:11:23.739Z,85.14
2017-09-10T20:13:51.640Z,85.21
2017-09-10T20:16:19.492Z,85.04
2017-09-10T20:18:47.392Z,85.21
2017-09-10T20:21:15.319Z,85.11
2017-09-10T20:23:43.257Z,85.18
2017-09-10T20:26:11.119Z,85.03
2017-09-10T20:28:39.036Z,85.13
2017-09-10T20:31:06.956Z,85.46
2017-09-10T20:33:34.863Z,85.56
2017-09-10T20:36:02.716Z,85.72
2017-09-10T20:38:30.664Z,85.93
2017-09-10T20:40:58.546Z,86.06
2017-09-10T20:43:26.443Z,86.12
2017-09-10T20:45:54.322Z,86.24
2017-09-10T20:48:22.240Z,86.47
2017-09-10T20:50:50.169Z,86.31
2017-09-10T20:53:18.038Z,86.35
2017-09-10T20:55:45.930Z,86.33
2017-09-10T20:58:13.806Z,86.38
2017-09-10T21:00:42.174Z,86.41
2017-09-10T21:03:10.015Z,86.36
2017-09-10T21:05:37.934Z,86.38
2017-09-10T21:08:05.779Z,86.53
2017-09-10T21:10:33.675Z,86.66
2017-09-10T21:13:01.589Z,86.66
2017-09-10T21:15:29.500Z,86.78
2017-09-10T21:17:57.370Z,86.84
2017-09-10T21:20:25.300Z,86.89
2017-09-10T21:22:53.183Z,86.96
2017-09-10T21:25:21.064Z,87.07
2017-09-10T21:27:48.938Z,87.03
2017-09-10T21:30:16.850Z,87.04
2017-09-10T21:32:44.804Z,87.09
2017-09-10T21:35:12.734Z,87.07
2017-09-10T21:37:40.490Z,86.98
2017-09-10T21:40:08.382Z,86.85
2017-09-10T21:42:36.258Z,86.74
2017-09-10T21:45:04.192Z,86.84
2017-09-10T21:47:32.023Z,86.87
2017-09-10T21:49:59.975Z,86.86
2017-09-10T21:52:27.819Z,86.94
2017-09-10T21:54:55.752Z,86.97
2017-09-10T21:57:23.619Z,86.77
2017-09-10T21:59:51.515Z,86.81
2017-09-10T22:02:19.364Z,86.87
2017-09-10T22:04:47.341Z,86.91
2017-09-10T22:07:15.240Z,86.92
2017-09-10T22:09:43.122Z,87.00
2017-09-10T22:12:10.968Z,87.21
2017-09-10T22:14:38.838Z,87.07
2017-09-10T22:17:06.669Z,87.18
2017-09-10T22:19:34.568Z,87.29
2017-09-10T22:22:02.424Z,87.22
2017-09-10T22:24:30.310Z,87.33
2017-09-10T22:26:58.159Z,87.22
2017-09-10T22:29:26.043Z,87.11
2017-09-10T22:31:53.945Z,86.85
2017-09-10T22:34:21.821Z,86.69
2017-09-10T22:36:49.663Z,86.45
2017-09-10T22:39:17.490Z,86.30
2017-09-10T22:41:45.396Z,86.26
2017-09-10T22:44:13.243Z,86.07
2017-09-10T22:46:41.169Z,85.99
2017-09-10T22:49:09.062Z,85.97
2017-09-10T22:51:36.982Z,85.95
2017-09-10T22:54:04.815Z,85.76
2017-09-10T22:56:32.722Z,85.76
2017-09-10T22:59:00.554Z,85.60
2017-09-10T23:01:28.431Z,85.61
2017-09-10T23:03:56.274Z,85.57
2017-09-10T23:06:24.150Z,85.58
2017-09-10T23:08:52.015Z,85.24
2017-09-10T23:11:19.902Z,84.90
2017-09-10T23:13:47.735Z,84.86
2017-09-10T23:16:15.611Z,84.74
2017-09-10T23:18:43.440Z,84.59
2017-09-10T23:21:11.333Z,84.60
2017-09-10T23:23:39.145Z,84.10
2017-09-10T23:26:07.003Z,83.88
2017-09-10T23:28:34.834Z,83.85
2017-09-10T23:31:02.786Z,83.70
2017-09-10T23:33:30.633Z,83.57
2017-09-10T23:35:58.511Z,83.56
2017-09-10T23:38:26.331Z,83.37
2017-09-10T23:40:54.232Z,83.28
2017-09-10T23:43:22.074Z,83.20
2017-09-10T23:45:49.964Z,83.10
2017-09-10T23:48:17.817Z,82.92
2017-09-10T23:50:45.723Z,82.95
2017-09-10T23:53:13.575Z,82.91
2017-09-10T23:55:41.454Z,83.29
2017-09-10T23:58:09.296Z,83.39
